sensor_id;sensor_type;location;lat;lon;timestamp;temperature;humidity
78325;DHT22;67584;51.400;6.692;2023-04-16T00:01:11;8.30;86.70
78325;DHT22;67584;51.400;6.692;2023-04-16T00:03:36;8.50;86.60
78325;DHT22;67584;51.400;6.692;2023-04-16T00:06:02;8.50;86.80
78325;DHT22;67584;51.400;6.692;2023-04-16T00:08:28;8.60;86.60
78325;DHT22;67584;51.400;6.692;2023-04-16T00:10:53;8.40;87.00
78325;DHT22;67584;51.400;6.692;2023-04-16T00:13:19;8.40;86.80
78325;DHT22;67584;51.400;6.692;2023-04-16T00:15:45;8.40;86.90
78325;DHT22;67584;51.400;6.692;2023-04-16T00:18:11;8.50;87.10
78325;DHT22;67584;51.400;6.692;2023-04-16T00:20:37;8.60;87.10
78325;DHT22;67584;51.400;6.692;2023-04-16T00:23:02;8.40;87.20
78325;DHT22;67584;51.400;6.692;2023-04-16T00:25:28;8.40;87.30
78325;DHT22;67584;51.400;6.692;2023-04-16T00:27:53;8.50;87.30
78325;DHT22;67584;51.400;6.692;2023-04-16T00:30:19;8.50;86.90
78325;DHT22;67584;51.400;6.692;2023-04-16T00:32:45;8.40;87.30
78325;DHT22;67584;51.400;6.692;2023-04-16T00:35:10;8.30;87.10
78325;DHT22;67584;51.400;6.692;2023-04-16T00:37:36;8.40;87.10
78325;DHT22;67584;51.400;6.692;2023-04-16T00:40:02;8.40;87.20
78325;DHT22;67584;51.400;6.692;2023-04-16T00:42:28;8.40;87.30
78325;DHT22;67584;51.400;6.692;2023-04-16T00:44:54;8.40;87.10
78325;DHT22;67584;51.400;6.692;2023-04-16T00:47:20;8.30;87.30
78325;DHT22;67584;51.400;6.692;2023-04-16T00:49:46;8.50;87.30
78325;DHT22;67584;51.400;6.692;2023-04-16T00:52:12;8.40;87.20
78325;DHT22;67584;51.400;6.692;2023-04-16T00:54:39;8.40;87.20
78325;DHT22;67584;51.400;6.692;2023-04-16T00:57:05;8.30;87.40
78325;DHT22;67584;51.400;6.692;2023-04-16T00:59:31;8.40;87.50
78325;DHT22;67584;51.400;6.692;2023-04-16T01:01:57;8.40;87.40
78325;DHT22;67584;51.400;6.692;2023-04-16T01:04:23;8.30;87.30
78325;DHT22;67584;51.400;6.692;2023-04-16T01:06:48;8.40;87.60
78325;DHT22;67584;51.400;6.692;2023-04-16T01:09:15;8.30;87.40
78325;DHT22;67584;51.400;6.692;2023-04-16T01:11:41;8.30;87.30
78325;DHT22;67584;51.400;6.692;2023-04-16T01:14:07;8.50;87.50
78325;DHT22;67584;51.400;6.692;2023-04-16T01:16:32;8.30;87.30
78325;DHT22;67584;51.400;6.692;2023-04-16T01:18:58;8.20;87.80
78325;DHT22;67584;51.400;6.692;2023-04-16T01:21:24;8.40;87.70
78325;DHT22;67584;51.400;6.692;2023-04-16T01:23:50;8.10;87.90
78325;DHT22;67584;51.400;6.692;2023-04-16T01:26:16;8.30;87.90
78325;DHT22;67584;51.400;6.692;2023-04-16T01:28:42;8.40;87.80
78325;DHT22;67584;51.400;6.692;2023-04-16T01:31:08;8.30;87.90
78325;DHT22;67584;51.400;6.692;2023-04-16T01:33:59;8.40;87.70
78325;DHT22;67584;51.400;6.692;2023-04-16T01:36:27;8.30;87.80
78325;DHT22;67584;51.400;6.692;2023-04-16T01:38:54;8.20;87.30
78325;DHT22;67584;51.400;6.692;2023-04-16T01:41:19;8.30;87.50
78325;DHT22;67584;51.400;6.692;2023-04-16T01:43:45;8.30;87.90
78325;DHT22;67584;51.400;6.692;2023-04-16T01:46:18;8.20;88.00
78325;DHT22;67584;51.400;6.692;2023-04-16T01:48:45;8.40;88.10
78325;DHT22;67584;51.400;6.692;2023-04-16T01:51:11;8.30;88.30
78325;DHT22;67584;51.400;6.692;2023-04-16T01:53:37;8.40;88.20
78325;DHT22;67584;51.400;6.692;2023-04-16T01:56:03;8.20;88.40
78325;DHT22;67584;51.400;6.692;2023-04-16T01:58:29;8.40;88.20
78325;DHT22;67584;51.400;6.692;2023-04-16T02:00:55;8.30;88.40
78325;DHT22;67584;51.400;6.692;2023-04-16T02:03:21;8.40;88.40
78325;DHT22;67584;51.400;6.692;2023-04-16T02:05:49;8.30;88.70
78325;DHT22;67584;51.400;6.692;2023-04-16T02:08:15;8.30;88.70
78325;DHT22;67584;51.400;6.692;2023-04-16T02:10:41;8.30;88.80
78325;DHT22;67584;51.400;6.692;2023-04-16T02:13:07;8.20;89.30
78325;DHT22;67584;51.400;6.692;2023-04-16T02:15:33;8.10;89.40
78325;DHT22;67584;51.400;6.692;2023-04-16T02:17:58;8.20;89.70
78325;DHT22;67584;51.400;6.692;2023-04-16T02:20:24;8.20;89.70
78325;DHT22;67584;51.400;6.692;2023-04-16T02:22:54;8.30;89.90
78325;DHT22;67584;51.400;6.692;2023-04-16T02:25:22;8.20;90.10
78325;DHT22;67584;51.400;6.692;2023-04-16T02:27:49;8.20;90.20
78325;DHT22;67584;51.400;6.692;2023-04-16T02:30:42;8.30;90.50
78325;DHT22;67584;51.400;6.692;2023-04-16T02:33:10;8.30;90.20
78325;DHT22;67584;51.400;6.692;2023-04-16T02:35:38;8.30;90.00
78325;DHT22;67584;51.400;6.692;2023-04-16T02:38:06;8.20;90.40
78325;DHT22;67584;51.400;6.692;2023-04-16T02:40:34;8.20;90.30
78325;DHT22;67584;51.400;6.692;2023-04-16T02:42:59;8.40;90.30
78325;DHT22;67584;51.400;6.692;2023-04-16T02:45:26;8.10;90.60
78325;DHT22;67584;51.400;6.692;2023-04-16T02:47:51;8.10;90.60
78325;DHT22;67584;51.400;6.692;2023-04-16T02:50:17;8.30;90.70
78325;DHT22;67584;51.400;6.692;2023-04-16T02:52:43;8.30;90.60
78325;DHT22;67584;51.400;6.692;2023-04-16T02:55:09;8.20;90.40
78325;DHT22;67584;51.400;6.692;2023-04-16T02:57:35;8.30;90.40
78325;DHT22;67584;51.400;6.692;2023-04-16T03:00:02;8.20;90.30
78325;DHT22;67584;51.400;6.692;2023-04-16T03:02:29;8.30;90.30
78325;DHT22;67584;51.400;6.692;2023-04-16T03:04:55;8.20;90.40
78325;DHT22;67584;51.400;6.692;2023-04-16T03:07:21;8.30;90.30
78325;DHT22;67584;51.400;6.692;2023-04-16T03:09:47;8.30;90.10
78325;DHT22;67584;51.400;6.692;2023-04-16T03:12:12;8.30;90.40
78325;DHT22;67584;51.400;6.692;2023-04-16T03:14:38;8.40;90.10
78325;DHT22;67584;51.400;6.692;2023-04-16T03:17:04;8.50;90.10
78325;DHT22;67584;51.400;6.692;2023-04-16T03:19:30;8.40;90.30
78325;DHT22;67584;51.400;6.692;2023-04-16T03:21:55;8.30;90.60
78325;DHT22;67584;51.400;6.692;2023-04-16T03:24:21;8.30;90.50
78325;DHT22;67584;51.400;6.692;2023-04-16T03:26:48;8.40;90.60
78325;DHT22;67584;51.400;6.692;2023-04-16T03:29:13;8.40;90.70
78325;DHT22;67584;51.400;6.692;2023-04-16T03:31:40;8.30;90.60
78325;DHT22;67584;51.400;6.692;2023-04-16T03:34:06;8.40;90.50
78325;DHT22;67584;51.400;6.692;2023-04-16T03:36:32;8.50;90.60
78325;DHT22;67584;51.400;6.692;2023-04-16T03:38:58;8.40;90.70
78325;DHT22;67584;51.400;6.692;2023-04-16T03:41:24;8.40;90.60
78325;DHT22;67584;51.400;6.692;2023-04-16T03:43:49;8.40;90.70
78325;DHT22;67584;51.400;6.692;2023-04-16T03:46:15;8.10;90.80
78325;DHT22;67584;51.400;6.692;2023-04-16T03:48:41;8.40;90.70
78325;DHT22;67584;51.400;6.692;2023-04-16T03:51:07;8.40;90.80
78325;DHT22;67584;51.400;6.692;2023-04-16T03:53:33;8.40;90.80
78325;DHT22;67584;51.400;6.692;2023-04-16T03:55:59;8.50;90.80
78325;DHT22;67584;51.400;6.692;2023-04-16T03:58:26;8.50;90.80
78325;DHT22;67584;51.400;6.692;2023-04-16T04:00:52;8.40;90.60
78325;DHT22;67584;51.400;6.692;2023-04-16T04:03:20;8.40;90.80
78325;DHT22;67584;51.400;6.692;2023-04-16T04:05:47;8.50;90.50
78325;DHT22;67584;51.400;6.692;2023-04-16T04:08:17;8.40;90.50
78325;DHT22;67584;51.400;6.692;2023-04-16T04:10:43;8.40;90.80
78325;DHT22;67584;51.400;6.692;2023-04-16T04:13:11;8.40;90.70
78325;DHT22;67584;51.400;6.692;2023-04-16T04:15:36;8.50;90.60
78325;DHT22;67584;51.400;6.692;2023-04-16T04:18:02;8.50;90.70
78325;DHT22;67584;51.400;6.692;2023-04-16T04:20:28;8.50;90.70
78325;DHT22;67584;51.400;6.692;2023-04-16T04:22:53;8.40;90.70
78325;DHT22;67584;51.400;6.692;2023-04-16T04:25:22;8.60;90.70
78325;DHT22;67584;51.400;6.692;2023-04-16T04:27:48;8.50;90.90
78325;DHT22;67584;51.400;6.692;2023-04-16T04:30:14;8.40;90.80
78325;DHT22;67584;51.400;6.692;2023-04-16T04:32:40;8.30;90.80
78325;DHT22;67584;51.400;6.692;2023-04-16T04:35:07;8.60;90.80
78325;DHT22;67584;51.400;6.692;2023-04-16T04:37:32;8.60;90.80
78325;DHT22;67584;51.400;6.692;2023-04-16T04:40:02;8.50;90.50
78325;DHT22;67584;51.400;6.692;2023-04-16T04:42:28;8.60;90.60
78325;DHT22;67584;51.400;6.692;2023-04-16T04:44:54;8.60;90.80
78325;DHT22;67584;51.400;6.692;2023-04-16T04:47:20;8.40;90.80
78325;DHT22;67584;51.400;6.692;2023-04-16T04:49:46;8.60;90.90
78325;DHT22;67584;51.400;6.692;2023-04-16T04:52:12;8.60;90.60
78325;DHT22;67584;51.400;6.692;2023-04-16T04:54:38;8.60;90.60
78325;DHT22;67584;51.400;6.692;2023-04-16T04:57:07;8.60;90.70
78325;DHT22;67584;51.400;6.692;2023-04-16T04:59:33;8.40;90.60
78325;DHT22;67584;51.400;6.692;2023-04-16T05:01:58;8.60;90.60
78325;DHT22;67584;51.400;6.692;2023-04-16T05:04:24;8.60;90.60
78325;DHT22;67584;51.400;6.692;2023-04-16T05:06:50;8.70;90.50
78325;DHT22;67584;51.400;6.692;2023-04-16T05:09:16;8.70;90.50
78325;DHT22;67584;51.400;6.692;2023-04-16T05:11:41;8.70;90.50
78325;DHT22;67584;51.400;6.692;2023-04-16T05:14:07;8.70;90.50
78325;DHT22;67584;51.400;6.692;2023-04-16T05:16:36;8.60;90.50
78325;DHT22;67584;51.400;6.692;2023-04-16T05:19:02;8.50;90.60
78325;DHT22;67584;51.400;6.692;2023-04-16T05:21:28;8.70;90.60
78325;DHT22;67584;51.400;6.692;2023-04-16T05:23:54;8.70;90.80
78325;DHT22;67584;51.400;6.692;2023-04-16T05:26:19;8.60;90.80
78325;DHT22;67584;51.400;6.692;2023-04-16T05:28:45;8.70;90.70
78325;DHT22;67584;51.400;6.692;2023-04-16T05:31:11;8.60;91.10
78325;DHT22;67584;51.400;6.692;2023-04-16T05:33:37;8.60;91.20
78325;DHT22;67584;51.400;6.692;2023-04-16T05:36:02;8.60;91.10
78325;DHT22;67584;51.400;6.692;2023-04-16T05:38:28;8.60;91.10
78325;DHT22;67584;51.400;6.692;2023-04-16T05:40:54;8.70;91.30
78325;DHT22;67584;51.400;6.692;2023-04-16T05:43:20;8.60;91.20
78325;DHT22;67584;51.400;6.692;2023-04-16T05:45:46;8.70;91.20
78325;DHT22;67584;51.400;6.692;2023-04-16T05:48:11;8.70;91.20
78325;DHT22;67584;51.400;6.692;2023-04-16T05:50:38;8.70;91.10
78325;DHT22;67584;51.400;6.692;2023-04-16T05:53:08;8.80;91.20
78325;DHT22;67584;51.400;6.692;2023-04-16T05:55:34;8.80;91.00
78325;DHT22;67584;51.400;6.692;2023-04-16T05:58:03;8.70;90.80
78325;DHT22;67584;51.400;6.692;2023-04-16T06:00:30;8.60;90.70
78325;DHT22;67584;51.400;6.692;2023-04-16T06:02:56;8.80;90.20
78325;DHT22;67584;51.400;6.692;2023-04-16T06:05:22;8.90;90.40
78325;DHT22;67584;51.400;6.692;2023-04-16T06:07:48;8.90;89.90
78325;DHT22;67584;51.400;6.692;2023-04-16T06:10:14;9.00;89.80
78325;DHT22;67584;51.400;6.692;2023-04-16T06:12:39;8.90;89.30
78325;DHT22;67584;51.400;6.692;2023-04-16T06:15:05;9.00;89.10
78325;DHT22;67584;51.400;6.692;2023-04-16T06:17:31;9.10;88.90
78325;DHT22;67584;51.400;6.692;2023-04-16T06:19:57;9.00;88.70
78325;DHT22;67584;51.400;6.692;2023-04-16T06:22:23;9.10;88.80
78325;DHT22;67584;51.400;6.692;2023-04-16T06:24:49;9.10;88.30
78325;DHT22;67584;51.400;6.692;2023-04-16T06:27:15;9.10;88.20
78325;DHT22;67584;51.400;6.692;2023-04-16T06:29:40;9.20;87.70
78325;DHT22;67584;51.400;6.692;2023-04-16T06:32:09;9.20;87.70
78325;DHT22;67584;51.400;6.692;2023-04-16T06:34:36;9.20;87.60
78325;DHT22;67584;51.400;6.692;2023-04-16T06:37:01;9.30;87.50
78325;DHT22;67584;51.400;6.692;2023-04-16T06:39:27;9.30;87.00
78325;DHT22;67584;51.400;6.692;2023-04-16T06:41:53;9.30;86.30
78325;DHT22;67584;51.400;6.692;2023-04-16T06:44:18;9.30;87.10
78325;DHT22;67584;51.400;6.692;2023-04-16T06:46:44;9.30;86.80
78325;DHT22;67584;51.400;6.692;2023-04-16T06:49:10;9.30;86.70
78325;DHT22;67584;51.400;6.692;2023-04-16T06:51:35;9.30;86.60
78325;DHT22;67584;51.400;6.692;2023-04-16T06:54:01;9.30;86.20
78325;DHT22;67584;51.400;6.692;2023-04-16T06:56:26;9.30;86.20
78325;DHT22;67584;51.400;6.692;2023-04-16T06:58:52;9.30;86.30
78325;DHT22;67584;51.400;6.692;2023-04-16T07:01:18;9.30;86.40
78325;DHT22;67584;51.400;6.692;2023-04-16T07:03:44;9.20;86.00
78325;DHT22;67584;51.400;6.692;2023-04-16T07:06:10;9.10;86.00
78325;DHT22;67584;51.400;6.692;2023-04-16T07:08:36;9.30;85.20
78325;DHT22;67584;51.400;6.692;2023-04-16T07:11:01;9.40;85.00
78325;DHT22;67584;51.400;6.692;2023-04-16T07:13:27;9.60;84.70
78325;DHT22;67584;51.400;6.692;2023-04-16T07:15:53;9.60;83.90
78325;DHT22;67584;51.400;6.692;2023-04-16T07:18:19;9.70;84.10
78325;DHT22;67584;51.400;6.692;2023-04-16T07:20:44;9.80;83.80
78325;DHT22;67584;51.400;6.692;2023-04-16T07:23:10;9.80;83.10
78325;DHT22;67584;51.400;6.692;2023-04-16T07:25:36;10.00;83.00
78325;DHT22;67584;51.400;6.692;2023-04-16T07:28:02;10.10;81.50
78325;DHT22;67584;51.400;6.692;2023-04-16T07:30:28;10.30;81.80
78325;DHT22;67584;51.400;6.692;2023-04-16T07:32:59;10.40;81.20
78325;DHT22;67584;51.400;6.692;2023-04-16T07:35:25;10.60;80.80
78325;DHT22;67584;51.400;6.692;2023-04-16T07:37:51;10.70;80.50
78325;DHT22;67584;51.400;6.692;2023-04-16T07:40:17;10.80;79.50
78325;DHT22;67584;51.400;6.692;2023-04-16T07:42:42;11.00;79.90
78325;DHT22;67584;51.400;6.692;2023-04-16T07:45:08;11.10;78.20
78325;DHT22;67584;51.400;6.692;2023-04-16T07:47:34;11.40;78.50
78325;DHT22;67584;51.400;6.692;2023-04-16T07:50:00;11.50;77.40
78325;DHT22;67584;51.400;6.692;2023-04-16T07:52:26;11.70;76.70
78325;DHT22;67584;51.400;6.692;2023-04-16T07:54:52;11.80;76.00
78325;DHT22;67584;51.400;6.692;2023-04-16T07:57:17;12.00;76.60
78325;DHT22;67584;51.400;6.692;2023-04-16T07:59:43;11.60;76.50
78325;DHT22;67584;51.400;6.692;2023-04-16T08:02:13;11.90;76.70
78325;DHT22;67584;51.400;6.692;2023-04-16T08:04:40;11.70;76.70
78325;DHT22;67584;51.400;6.692;2023-04-16T08:07:06;11.50;76.60
78325;DHT22;67584;51.400;6.692;2023-04-16T08:09:32;11.60;76.50
78325;DHT22;67584;51.400;6.692;2023-04-16T08:11:59;11.70;76.90
78325;DHT22;67584;51.400;6.692;2023-04-16T08:14:25;11.50;76.80
78325;DHT22;67584;51.400;6.692;2023-04-16T08:16:51;11.40;76.90
78325;DHT22;67584;51.400;6.692;2023-04-16T08:19:16;11.40;77.50
78325;DHT22;67584;51.400;6.692;2023-04-16T08:21:42;11.30;77.10
78325;DHT22;67584;51.400;6.692;2023-04-16T08:24:08;11.20;76.80
78325;DHT22;67584;51.400;6.692;2023-04-16T08:26:34;11.30;77.00
78325;DHT22;67584;51.400;6.692;2023-04-16T08:29:00;11.60;77.00
78325;DHT22;67584;51.400;6.692;2023-04-16T08:31:25;11.90;75.50
78325;DHT22;67584;51.400;6.692;2023-04-16T08:33:51;12.00;75.00
78325;DHT22;67584;51.400;6.692;2023-04-16T08:36:16;12.10;75.00
78325;DHT22;67584;51.400;6.692;2023-04-16T08:38:42;12.20;75.50
78325;DHT22;67584;51.400;6.692;2023-04-16T08:41:11;12.50;74.80
78325;DHT22;67584;51.400;6.692;2023-04-16T08:43:40;12.60;74.10
78325;DHT22;67584;51.400;6.692;2023-04-16T08:46:06;12.90;73.30
78325;DHT22;67584;51.400;6.692;2023-04-16T08:48:33;13.30;73.00
78325;DHT22;67584;51.400;6.692;2023-04-16T08:51:00;13.50;72.30
78325;DHT22;67584;51.400;6.692;2023-04-16T08:53:34;13.70;70.60
78325;DHT22;67584;51.400;6.692;2023-04-16T08:56:04;13.60;70.70
78325;DHT22;67584;51.400;6.692;2023-04-16T08:58:32;13.70;70.80
78325;DHT22;67584;51.400;6.692;2023-04-16T09:01:02;13.70;70.50
78325;DHT22;67584;51.400;6.692;2023-04-16T09:03:30;13.90;68.60
78325;DHT22;67584;51.400;6.692;2023-04-16T09:05:57;13.80;68.30
78325;DHT22;67584;51.400;6.692;2023-04-16T09:08:28;14.00;68.00
78325;DHT22;67584;51.400;6.692;2023-04-16T09:10:55;14.00;67.10
78325;DHT22;67584;51.400;6.692;2023-04-16T09:13:21;14.10;67.60
78325;DHT22;67584;51.400;6.692;2023-04-16T09:15:53;14.00;67.80
78325;DHT22;67584;51.400;6.692;2023-04-16T09:18:21;14.00;67.70
78325;DHT22;67584;51.400;6.692;2023-04-16T09:20:48;14.10;68.20
78325;DHT22;67584;51.400;6.692;2023-04-16T09:23:15;14.10;67.20
78325;DHT22;67584;51.400;6.692;2023-04-16T09:25:41;14.20;67.30
78325;DHT22;67584;51.400;6.692;2023-04-16T09:28:11;14.20;67.00
78325;DHT22;67584;51.400;6.692;2023-04-16T09:30:37;14.30;66.20
78325;DHT22;67584;51.400;6.692;2023-04-16T09:33:20;14.40;66.60
78325;DHT22;67584;51.400;6.692;2023-04-16T09:35:52;14.60;66.50
78325;DHT22;67584;51.400;6.692;2023-04-16T09:38:19;14.70;65.10
78325;DHT22;67584;51.400;6.692;2023-04-16T09:40:45;14.70;64.90
78325;DHT22;67584;51.400;6.692;2023-04-16T09:43:14;14.90;65.40
78325;DHT22;67584;51.400;6.692;2023-04-16T09:45:50;15.40;63.90
78325;DHT22;67584;51.400;6.692;2023-04-16T09:48:31;15.20;63.00
78325;DHT22;67584;51.400;6.692;2023-04-16T09:51:00;15.30;63.20
78325;DHT22;67584;51.400;6.692;2023-04-16T09:53:27;15.20;63.30
78325;DHT22;67584;51.400;6.692;2023-04-16T09:56:01;15.40;63.30
78325;DHT22;67584;51.400;6.692;2023-04-16T09:58:27;16.00;60.10
78325;DHT22;67584;51.400;6.692;2023-04-16T10:01:05;16.60;59.30
78325;DHT22;67584;51.400;6.692;2023-04-16T10:03:32;17.10;57.50
78325;DHT22;67584;51.400;6.692;2023-04-16T10:08:42;17.50;55.40
78325;DHT22;67584;51.400;6.692;2023-04-16T10:11:09;17.30;56.20
78325;DHT22;67584;51.400;6.692;2023-04-16T10:13:35;17.20;56.20
78325;DHT22;67584;51.400;6.692;2023-04-16T10:16:02;16.80;57.30
78325;DHT22;67584;51.400;6.692;2023-04-16T10:18:28;16.90;57.40
78325;DHT22;67584;51.400;6.692;2023-04-16T10:20:54;16.60;57.30
78325;DHT22;67584;51.400;6.692;2023-04-16T10:23:21;16.60;58.50
78325;DHT22;67584;51.400;6.692;2023-04-16T10:25:48;16.50;59.20
78325;DHT22;67584;51.400;6.692;2023-04-16T10:28:15;16.30;59.30
78325;DHT22;67584;51.400;6.692;2023-04-16T10:30:46;16.10;60.20
78325;DHT22;67584;51.400;6.692;2023-04-16T10:33:19;16.30;60.30
78325;DHT22;67584;51.400;6.692;2023-04-16T10:35:45;16.10;60.40
78325;DHT22;67584;51.400;6.692;2023-04-16T10:38:25;16.40;59.60
78325;DHT22;67584;51.400;6.692;2023-04-16T10:41:01;17.10;57.10
78325;DHT22;67584;51.400;6.692;2023-04-16T10:43:32;17.20;56.40
78325;DHT22;67584;51.400;6.692;2023-04-16T10:48:45;17.10;56.70
78325;DHT22;67584;51.400;6.692;2023-04-16T10:51:34;17.50;55.90
78325;DHT22;67584;51.400;6.692;2023-04-16T10:56:45;17.80;55.00
78325;DHT22;67584;51.400;6.692;2023-04-16T10:59:11;17.70;54.80
78325;DHT22;67584;51.400;6.692;2023-04-16T11:01:42;18.00;53.90
78325;DHT22;67584;51.400;6.692;2023-04-16T11:12:39;23.10;41.50
78325;DHT22;67584;51.400;6.692;2023-04-16T11:17:37;21.30;43.70
78325;DHT22;67584;51.400;6.692;2023-04-16T11:20:28;20.20;45.70
78325;DHT22;67584;51.400;6.692;2023-04-16T11:22:56;19.00;48.90
78325;DHT22;67584;51.400;6.692;2023-04-16T11:25:29;19.20;49.40
78325;DHT22;67584;51.400;6.692;2023-04-16T11:27:56;19.70;48.40
78325;DHT22;67584;51.400;6.692;2023-04-16T11:30:34;19.70;48.30
78325;DHT22;67584;51.400;6.692;2023-04-16T11:33:03;19.70;48.70
78325;DHT22;67584;51.400;6.692;2023-04-16T11:35:29;20.10;48.00
78325;DHT22;67584;51.400;6.692;2023-04-16T11:37:56;19.50;47.60
78325;DHT22;67584;51.400;6.692;2023-04-16T11:40:22;19.30;48.10
78325;DHT22;67584;51.400;6.692;2023-04-16T11:42:48;19.20;48.20
78325;DHT22;67584;51.400;6.692;2023-04-16T11:45:14;18.90;48.60
78325;DHT22;67584;51.400;6.692;2023-04-16T11:47:50;18.60;49.90
78325;DHT22;67584;51.400;6.692;2023-04-16T11:50:27;18.20;50.60
78325;DHT22;67584;51.400;6.692;2023-04-16T11:52:58;18.20;50.60
78325;DHT22;67584;51.400;6.692;2023-04-16T11:55:27;18.10;50.70
78325;DHT22;67584;51.400;6.692;2023-04-16T11:57:53;18.10;50.40
78325;DHT22;67584;51.400;6.692;2023-04-16T12:00:21;18.40;50.20
78325;DHT22;67584;51.400;6.692;2023-04-16T12:02:56;19.30;49.00
78325;DHT22;67584;51.400;6.692;2023-04-16T12:05:34;20.10;46.50
78325;DHT22;67584;51.400;6.692;2023-04-16T12:08:01;20.60;45.10
78325;DHT22;67584;51.400;6.692;2023-04-16T12:10:28;20.60;44.40
78325;DHT22;67584;51.400;6.692;2023-04-16T12:13:10;20.20;44.80
78325;DHT22;67584;51.400;6.692;2023-04-16T12:15:53;19.80;46.10
78325;DHT22;67584;51.400;6.692;2023-04-16T12:18:21;19.50;47.10
78325;DHT22;67584;51.400;6.692;2023-04-16T12:20:48;19.30;47.40
78325;DHT22;67584;51.400;6.692;2023-04-16T12:23:31;18.90;48.30
78325;DHT22;67584;51.400;6.692;2023-04-16T12:25:58;18.80;48.90
78325;DHT22;67584;51.400;6.692;2023-04-16T12:28:35;19.40;48.60
78325;DHT22;67584;51.400;6.692;2023-04-16T12:31:03;20.10;46.20
78325;DHT22;67584;51.400;6.692;2023-04-16T12:33:29;20.90;44.40
78325;DHT22;67584;51.400;6.692;2023-04-16T12:35:55;21.20;43.80
78325;DHT22;67584;51.400;6.692;2023-04-16T12:38:20;20.90;44.60
78325;DHT22;67584;51.400;6.692;2023-04-16T12:40:46;21.10;43.90
78325;DHT22;67584;51.400;6.692;2023-04-16T12:43:12;20.90;44.00
78325;DHT22;67584;51.400;6.692;2023-04-16T12:45:38;20.60;44.80
78325;DHT22;67584;51.400;6.692;2023-04-16T12:48:05;20.30;45.90
78325;DHT22;67584;51.400;6.692;2023-04-16T12:50:31;19.70;46.30
78325;DHT22;67584;51.400;6.692;2023-04-16T12:52:57;19.40;47.00
78325;DHT22;67584;51.400;6.692;2023-04-16T12:55:23;19.00;47.80
78325;DHT22;67584;51.400;6.692;2023-04-16T12:57:49;18.60;49.40
78325;DHT22;67584;51.400;6.692;2023-04-16T13:00:17;18.40;48.90
78325;DHT22;67584;51.400;6.692;2023-04-16T13:02:43;18.50;49.50
78325;DHT22;67584;51.400;6.692;2023-04-16T13:05:08;19.00;48.70
78325;DHT22;67584;51.400;6.692;2023-04-16T13:07:34;19.30;46.90
78325;DHT22;67584;51.400;6.692;2023-04-16T13:10:00;19.60;46.90
78325;DHT22;67584;51.400;6.692;2023-04-16T13:12:26;20.00;45.40
78325;DHT22;67584;51.400;6.692;2023-04-16T13:14:52;20.30;45.50
78325;DHT22;67584;51.400;6.692;2023-04-16T13:17:18;20.30;45.60
78325;DHT22;67584;51.400;6.692;2023-04-16T13:19:43;20.30;45.40
78325;DHT22;67584;51.400;6.692;2023-04-16T13:22:10;20.20;46.20
78325;DHT22;67584;51.400;6.692;2023-04-16T13:24:35;20.20;45.70
78325;DHT22;67584;51.400;6.692;2023-04-16T13:27:01;19.90;46.60
78325;DHT22;67584;51.400;6.692;2023-04-16T13:29:30;19.60;46.20
78325;DHT22;67584;51.400;6.692;2023-04-16T13:31:56;19.60;47.60
78325;DHT22;67584;51.400;6.692;2023-04-16T13:34:22;19.50;47.50
78325;DHT22;67584;51.400;6.692;2023-04-16T13:36:47;19.50;46.80
78325;DHT22;67584;51.400;6.692;2023-04-16T13:39:13;19.40;47.60
78325;DHT22;67584;51.400;6.692;2023-04-16T13:41:40;19.30;46.70
78325;DHT22;67584;51.400;6.692;2023-04-16T13:44:06;19.20;46.70
78325;DHT22;67584;51.400;6.692;2023-04-16T13:46:32;19.30;46.70
78325;DHT22;67584;51.400;6.692;2023-04-16T13:48:58;19.30;47.30
78325;DHT22;67584;51.400;6.692;2023-04-16T13:51:23;19.10;46.90
78325;DHT22;67584;51.400;6.692;2023-04-16T13:53:49;19.10;46.60
78325;DHT22;67584;51.400;6.692;2023-04-16T13:56:15;19.10;47.50
78325;DHT22;67584;51.400;6.692;2023-04-16T13:58:41;19.50;47.70
78325;DHT22;67584;51.400;6.692;2023-04-16T14:01:07;19.80;46.10
78325;DHT22;67584;51.400;6.692;2023-04-16T14:03:33;19.60;46.50
78325;DHT22;67584;51.400;6.692;2023-04-16T14:06:01;20.00;45.80
78325;DHT22;67584;51.400;6.692;2023-04-16T14:08:27;20.50;43.90
78325;DHT22;67584;51.400;6.692;2023-04-16T14:10:53;20.60;44.10
78325;DHT22;67584;51.400;6.692;2023-04-16T14:13:19;21.20;43.30
78325;DHT22;67584;51.400;6.692;2023-04-16T14:15:45;21.80;41.60
78325;DHT22;67584;51.400;6.692;2023-04-16T14:18:10;21.70;40.50
78325;DHT22;67584;51.400;6.692;2023-04-16T14:20:36;21.20;42.50
78325;DHT22;67584;51.400;6.692;2023-04-16T14:23:04;20.70;44.00
78325;DHT22;67584;51.400;6.692;2023-04-16T14:25:30;20.60;43.90
78325;DHT22;67584;51.400;6.692;2023-04-16T14:27:57;20.20;44.80
78325;DHT22;67584;51.400;6.692;2023-04-16T14:30:23;19.90;45.60
78325;DHT22;67584;51.400;6.692;2023-04-16T14:32:49;19.50;46.70
78325;DHT22;67584;51.400;6.692;2023-04-16T14:35:14;19.30;47.30
78325;DHT22;67584;51.400;6.692;2023-04-16T14:37:40;18.90;47.80
78325;DHT22;67584;51.400;6.692;2023-04-16T14:40:06;18.60;48.10
78325;DHT22;67584;51.400;6.692;2023-04-16T14:42:34;18.30;49.10
78325;DHT22;67584;51.400;6.692;2023-04-16T14:45:01;18.10;50.10
78325;DHT22;67584;51.400;6.692;2023-04-16T14:47:27;18.10;50.50
78325;DHT22;67584;51.400;6.692;2023-04-16T14:49:53;18.00;50.80
78325;DHT22;67584;51.400;6.692;2023-04-16T14:52:18;18.10;51.10
78325;DHT22;67584;51.400;6.692;2023-04-16T14:54:44;18.30;50.60
78325;DHT22;67584;51.400;6.692;2023-04-16T14:57:10;18.20;50.00
78325;DHT22;67584;51.400;6.692;2023-04-16T14:59:35;18.20;50.60
78325;DHT22;67584;51.400;6.692;2023-04-16T15:02:01;18.00;51.60
78325;DHT22;67584;51.400;6.692;2023-04-16T15:04:27;17.90;51.60
78325;DHT22;67584;51.400;6.692;2023-04-16T15:06:54;17.30;53.10
78325;DHT22;67584;51.400;6.692;2023-04-16T15:09:27;17.00;55.50
78325;DHT22;67584;51.400;6.692;2023-04-16T15:11:53;16.60;57.30
78325;DHT22;67584;51.400;6.692;2023-04-16T15:14:20;16.30;59.70
78325;DHT22;67584;51.400;6.692;2023-04-16T15:16:46;16.10;60.70
78325;DHT22;67584;51.400;6.692;2023-04-16T15:19:12;15.80;59.90
78325;DHT22;67584;51.400;6.692;2023-04-16T15:21:38;15.60;60.50
78325;DHT22;67584;51.400;6.692;2023-04-16T15:24:04;15.70;61.90
78325;DHT22;67584;51.400;6.692;2023-04-16T15:26:30;15.60;61.40
78325;DHT22;67584;51.400;6.692;2023-04-16T15:28:56;15.70;61.90
78325;DHT22;67584;51.400;6.692;2023-04-16T15:31:21;15.80;60.50
78325;DHT22;67584;51.400;6.692;2023-04-16T15:33:47;15.80;60.50
78325;DHT22;67584;51.400;6.692;2023-04-16T15:36:13;15.90;60.30
78325;DHT22;67584;51.400;6.692;2023-04-16T15:38:39;16.00;60.60
78325;DHT22;67584;51.400;6.692;2023-04-16T15:41:06;16.10;60.00
78325;DHT22;67584;51.400;6.692;2023-04-16T15:43:33;16.20;60.70
78325;DHT22;67584;51.400;6.692;2023-04-16T15:45:59;16.10;61.30
78325;DHT22;67584;51.400;6.692;2023-04-16T15:48:25;16.10;60.30
78325;DHT22;67584;51.400;6.692;2023-04-16T15:50:50;15.90;60.60
78325;DHT22;67584;51.400;6.692;2023-04-16T15:53:17;15.80;58.60
78325;DHT22;67584;51.400;6.692;2023-04-16T15:55:43;15.50;60.60